Time;durP1;ratioP1;P1;durP2;ratioP2;P2;SDS_P1;SDS_P2;PMS_P1;PMS_P2;Temp;Humidity;BMP_temperature;BMP_pressure;BME280_temperature;BME280_humidity;BME280_pressure;Samples;Min_cycle;Max_cycle;Signal;HPM_P1;HPM_P2
2022/06/10 00:01:26;;;;;;;;;;;;;;;;;;5079909;28;19912;-75
2022/06/10 00:04:13;;;;;;;;;;;;;;;;;;5077635;28;19943;-75
2022/06/10 00:06:59;;;;;;;;;;;;;;;;;;5077119;28;19951;-76
2022/06/10 00:09:46;;;;;;;;;;;;;;;;;;5083333;28;19912;-75
2022/06/10 00:12:32;;;;;;;;;;;;;;;;;;5075699;28;19992;-76
2022/06/10 00:15:19;;;;;;;;;;;;;;;;;;5079310;28;19927;-76
2022/06/10 00:18:06;;;;;;;;;;;;;;;;;;5076522;28;20482;-73
2022/06/10 00:20:52;;;;;;;;;;;;;;;;;;5086036;28;19920;-76
2022/06/10 00:23:38;;;;;;;;;;;;;;;;;;5081102;28;19915;-76
2022/06/10 00:26:25;;;;;;;;;;;;;;;;;;5066537;28;19919;-76
2022/06/10 00:29:11;;;;;;;;;;;;;;;;;;5074920;28;20296;-77
2022/06/10 00:31:58;;;;;;;;;;;;;;;;;;5081489;28;19920;-76
2022/06/10 00:34:44;;;;;;;;;;;;;;;;;;5087008;28;20364;-74
2022/06/10 00:37:31;;;;;;;;;;;;;;;;;;5077727;28;19943;-76
2022/06/10 00:40:17;;;;;;;;;;;;;;;;;;5082877;28;20581;-75
2022/06/10 00:43:04;;;;;;;;;;;;;;;;;;5078827;28;19912;-75
2022/06/10 00:45:50;;;;;;;;;;;;;;;;;;5092250;28;19915;-75
2022/06/10 00:48:37;;;;;;;;;;;;;;;;;;5084371;28;19909;-76
2022/06/10 00:51:23;;;;;;;;;;;;;;;;;;5081361;28;19918;-76
2022/06/10 00:54:10;;;;;;;;;;;;;;;;;;5083511;28;19908;-74
2022/06/10 00:56:56;;;;;;;;;;;;;;;;;;5067287;28;19927;-76
2022/06/10 00:59:43;;;;;;;;;;;;;;;;;;5077707;28;19959;-75
2022/06/10 01:02:34;;;;;;;;;;;;;;;;;;5082315;28;19912;-75
2022/06/10 01:05:20;;;;;;;;;;;;;;;;;;5083512;28;19909;-75
2022/06/10 01:08:07;;;;;;;;;;;;;;;;;;5077624;28;19912;-75
2022/06/10 01:10:53;;;;;;;;;;;;;;;;;;5073199;28;19913;-75
2022/06/10 01:13:40;;;;;;;;;;;;;;;;;;5074921;28;19919;-76
2022/06/10 01:16:26;;;;;;;;;;;;;;;;;;5080307;28;19923;-76
2022/06/10 01:19:13;;;;;;;;;;;;;;;;;;5076451;28;19908;-75
2022/06/10 01:21:59;;;;;;;;;;;;;;;;;;5083919;28;19912;-76
2022/06/10 01:24:46;;;;;;;;;;;;;;;;;;5067944;28;20288;-76
2022/06/10 01:27:48;;;;;;;;;;;;;;;;;;5078039;28;19912;-76
2022/06/10 01:30:34;;;;;;;;;;;;;;;;;;5074825;28;19909;-76
2022/06/10 01:33:21;;;;;;;;;;;;;;;;;;5079290;28;19920;-75
2022/06/10 01:36:07;;;;;;;;;;;;;;;;;;5065110;28;19936;-76
2022/06/10 01:38:54;;;;;;;;;;;;;;;;;;5080199;28;19912;-75
2022/06/10 01:41:40;;;;;;;;;;;;;;;;;;5063397;28;19940;-75
2022/06/10 01:44:27;;;;;;;;;;;;;;;;;;5081209;28;19919;-75
2022/06/10 01:47:13;;;;;;;;;;;;;;;;;;5087180;28;20367;-75
2022/06/10 01:50:00;;;;;;;;;;;;;;;;;;5073839;28;19931;-75
2022/06/10 01:52:46;;;;;;;;;;;;;;;;;;5087162;28;19916;-75
2022/06/10 01:55:33;;;;;;;;;;;;;;;;;;5078642;28;19923;-74
2022/06/10 01:58:19;;;;;;;;;;;;;;;;;;5084104;28;19919;-75
2022/06/10 02:01:06;;;;;;;;;;;;;;;;;;5080713;28;19927;-75
2022/06/10 02:03:52;;;;;;;;;;;;;;;;;;5079164;28;19912;-75
2022/06/10 02:06:38;;;;;;;;;;;;;;;;;;5069493;28;19935;-75
2022/06/10 02:09:25;;;;;;;;;;;;;;;;;;5080237;28;19913;-76
2022/06/10 02:12:11;;;;;;;;;;;;;;;;;;5071139;28;19920;-76
2022/06/10 02:14:58;;;;;;;;;;;;;;;;;;5066630;28;19919;-76
2022/06/10 02:17:44;;;;;;;;;;;;;;;;;;5089181;28;19935;-76
2022/06/10 02:20:31;;;;;;;;;;;;;;;;;;5081835;28;19916;-76
2022/06/10 02:23:17;;;;;;;;;;;;;;;;;;5091889;28;19915;-76
2022/06/10 02:26:04;;;;;;;;;;;;;;;;;;5071165;28;20396;-76
2022/06/10 02:28:50;;;;;;;;;;;;;;;;;;5070824;28;19916;-76
2022/06/10 02:31:37;;;;;;;;;;;;;;;;;;5079691;28;19916;-75
2022/06/10 02:34:23;;;;;;;;;;;;;;;;;;5069035;28;20360;-76
2022/06/10 02:37:10;;;;;;;;;;;;;;;;;;5097898;28;19926;-75
2022/06/10 02:39:56;;;;;;;;;;;;;;;;;;5072838;28;19909;-74
2022/06/10 02:42:43;;;;;;;;;;;;;;;;;;5087951;28;19908;-76
2022/06/10 02:45:29;;;;;;;;;;;;;;;;;;5081372;28;19912;-76
2022/06/10 02:48:16;;;;;;;;;;;;;;;;;;5084618;28;19927;-76
2022/06/10 02:51:02;;;;;;;;;;;;;;;;;;5084519;28;19942;-76
2022/06/10 02:53:48;;;;;;;;;;;;;;;;;;5092231;28;20258;-76
2022/06/10 02:56:35;;;;;;;;;;;;;;;;;;5075748;28;19916;-76
2022/06/10 03:02:27;;;;;;;;;;;;;;;;;;5085888;28;20275;-75
2022/06/10 03:05:13;;;;;;;;;;;;;;;;;;5084747;28;20658;-76
2022/06/10 03:08:01;;;;;;;;;;;;;;;;;;5076683;28;19909;-76
2022/06/10 03:10:47;;;;;;;;;;;;;;;;;;5085468;28;19919;-76
2022/06/10 03:13:34;;;;;;;;;;;;;;;;;;5085294;28;19923;-76
2022/06/10 03:16:26;;;;;;;;;;;;;;;;;;5085823;28;19920;-75
2022/06/10 03:19:13;;;;;;;;;;;;;;;;;;5082332;28;19908;-75
2022/06/10 03:21:59;;;;;;;;;;;;;;;;;;5072831;28;19909;-76
2022/06/10 03:24:46;;;;;;;;;;;;;;;;;;5075729;28;20296;-75
2022/06/10 03:27:32;;;;;;;;;;;;;;;;;;5076280;28;19908;-76
2022/06/10 03:30:19;;;;;;;;;;;;;;;;;;5081159;28;19943;-74
2022/06/10 03:33:05;;;;;;;;;;;;;;;;;;5077572;28;19908;-74
2022/06/10 03:35:52;;;;;;;;;;;;;;;;;;5092274;28;19924;-75
2022/06/10 03:38:38;;;;;;;;;;;;;;;;;;5069289;28;19917;-74
2022/06/10 03:41:25;;;;;;;;;;;;;;;;;;5079988;28;19920;-74
2022/06/10 03:44:12;;;;;;;;;;;;;;;;;;5078343;28;19966;-75
2022/06/10 03:46:58;;;;;;;;;;;;;;;;;;5080406;28;19916;-76
2022/06/10 03:49:45;;;;;;;;;;;;;;;;;;5079001;28;20286;-75
2022/06/10 03:52:31;;;;;;;;;;;;;;;;;;5091195;28;19916;-75
2022/06/10 03:55:18;;;;;;;;;;;;;;;;;;5075069;28;19923;-75
2022/06/10 03:58:05;;;;;;;;;;;;;;;;;;5087158;28;19915;-75
2022/06/10 04:00:51;;;;;;;;;;;;;;;;;;5088117;28;19909;-76
2022/06/10 04:03:38;;;;;;;;;;;;;;;;;;5080765;28;19908;-75
2022/06/10 04:06:24;;;;;;;;;;;;;;;;;;5079323;28;19955;-75
2022/06/10 04:09:11;;;;;;;;;;;;;;;;;;5051617;28;19908;-75
2022/06/10 04:11:57;;;;;;;;;;;;;;;;;;5075183;28;19909;-76
2022/06/10 04:14:44;;;;;;;;;;;;;;;;;;5074482;28;19917;-76
2022/06/10 04:17:30;;;;;;;;;;;;;;;;;;5071809;28;19924;-76
2022/06/10 04:20:17;;;;;;;;;;;;;;;;;;5084071;28;19915;-76
2022/06/10 04:23:03;;;;;;;;;;;;;;;;;;5086122;28;20257;-74
2022/06/10 04:25:50;;;;;;;;;;;;;;;;;;5083896;28;19908;-76
2022/06/10 04:28:36;;;;;;;;;;;;;;;;;;5084018;28;20377;-76
2022/06/10 04:31:23;;;;;;;;;;;;;;;;;;5061198;28;19908;-76
2022/06/10 04:34:11;;;;;;;;;;;;;;;;;;5075892;28;20364;-75
2022/06/10 04:36:58;;;;;;;;;;;;;;;;;;5074203;28;19920;-76
2022/06/10 04:39:44;;;;;;;;;;;;;;;;;;5074543;28;19917;-75
2022/06/10 04:42:31;;;;;;;;;;;;;;;;;;5086039;28;19918;-75
2022/06/10 04:45:17;;;;;;;;;;;;;;;;;;5090395;28;19908;-75
2022/06/10 04:48:04;;;;;;;;;;;;;;;;;;5075655;28;19923;-75
2022/06/10 04:50:50;;;;;;;;;;;;;;;;;;5075343;28;19908;-75
2022/06/10 04:53:38;;;;;;;;;;;;;;;;;;5089936;28;19919;-75
2022/06/10 04:56:24;;;;;;;;;;;;;;;;;;5078447;28;19926;-74
2022/06/10 04:59:11;;;;;;;;;;;;;;;;;;5087193;28;19908;-75
2022/06/10 05:01:57;;;;;;;;;;;;;;;;;;5080177;28;19915;-75
2022/06/10 05:04:43;;;;;;;;;;;;;;;;;;5070241;28;20299;-75
2022/06/10 05:07:30;;;;;;;;;;;;;;;;;;5085012;28;19931;-75
2022/06/10 05:10:16;;;;;;;;;;;;;;;;;;5068207;28;20272;-75
2022/06/10 05:13:03;;;;;;;;;;;;;;;;;;5084028;28;20348;-74
2022/06/10 05:15:49;;;;;;;;;;;;;;;;;;5091582;28;19923;-75
2022/06/10 05:18:36;;;;;;;;;;;;;;;;;;5085548;28;20264;-75
2022/06/10 05:21:22;;;;;;;;;;;;;;;;;;5078612;28;19923;-75
2022/06/10 05:24:09;;;;;;;;;;;;;;;;;;5077740;28;19912;-75
2022/06/10 05:26:55;;;;;;;;;;;;;;;;;;5071903;28;19914;-76
2022/06/10 05:29:42;;;;;;;;;;;;;;;;;;5080779;28;20298;-75
2022/06/10 05:32:28;;;;;;;;;;;;;;;;;;5083645;28;20549;-75
2022/06/10 05:35:15;;;;;;;;;;;;;;;;;;5080304;28;19908;-75
2022/06/10 05:38:01;;;;;;;;;;;;;;;;;;5084709;28;19947;-74
2022/06/10 05:40:48;;;;;;;;;;;;;;;;;;5092687;28;19918;-75
2022/06/10 05:43:34;;;;;;;;;;;;;;;;;;5060087;28;20323;-76
2022/06/10 05:46:21;;;;;;;;;;;;;;;;;;5073271;28;19920;-77
2022/06/10 05:49:07;;;;;;;;;;;;;;;;;;5076968;28;20270;-77
2022/06/10 05:51:54;;;;;;;;;;;;;;;;;;5078593;28;19924;-76
2022/06/10 05:54:40;;;;;;;;;;;;;;;;;;5063026;28;19975;-77
2022/06/10 05:57:27;;;;;;;;;;;;;;;;;;5076711;28;19924;-77
2022/06/10 06:00:13;;;;;;;;;;;;;;;;;;5079663;28;20559;-77
2022/06/10 06:03:00;;;;;;;;;;;;;;;;;;5081655;28;19943;-76
2022/06/10 06:05:46;;;;;;;;;;;;;;;;;;5081090;28;19922;-78
2022/06/10 06:08:33;;;;;;;;;;;;;;;;;;5073434;28;19920;-77
2022/06/10 06:11:19;;;;;;;;;;;;;;;;;;5082680;28;19941;-76
2022/06/10 06:14:06;;;;;;;;;;;;;;;;;;5057478;28;20025;-76
2022/06/10 06:16:52;;;;;;;;;;;;;;;;;;5083652;28;20505;-76
2022/06/10 06:19:39;;;;;;;;;;;;;;;;;;5088383;28;19908;-76
2022/06/10 06:22:25;;;;;;;;;;;;;;;;;;5077202;28;20041;-75
2022/06/10 06:25:13;;;;;;;;;;;;;;;;;;5073944;28;19913;-76
2022/06/10 06:28:00;;;;;;;;;;;;;;;;;;5058418;28;19927;-78
2022/06/10 06:30:46;;;;;;;;;;;;;;;;;;5057681;28;19950;-77
2022/06/10 06:33:33;;;;;;;;;;;;;;;;;;5060132;28;19920;-77
2022/06/10 06:36:19;;;;;;;;;;;;;;;;;;5067255;28;19928;-78
2022/06/10 06:39:06;;;;;;;;;;;;;;;;;;5076481;28;20380;-78
2022/06/10 06:41:52;;;;;;;;;;;;;;;;;;5077759;28;19931;-78
2022/06/10 06:44:40;;;;;;;;;;;;;;;;;;5078021;28;19916;-80
2022/06/10 06:47:26;;;;;;;;;;;;;;;;;;5077908;28;19912;-77
2022/06/10 06:50:13;;;;;;;;;;;;;;;;;;5080122;28;19924;-75
2022/06/10 06:53:00;;;;;;;;;;;;;;;;;;5073322;28;19920;-76
2022/06/10 06:55:46;;;;;;;;;;;;;;;;;;5078526;28;19936;-76
2022/06/10 06:58:33;;;;;;;;;;;;;;;;;;5075910;28;20306;-74
2022/06/10 07:01:19;;;;;;;;;;;;;;;;;;5081227;28;20351;-76
2022/06/10 07:04:06;;;;;;;;;;;;;;;;;;5075928;28;19909;-76
2022/06/10 07:06:53;;;;;;;;;;;;;;;;;;5087244;28;19912;-76
2022/06/10 07:09:39;;;;;;;;;;;;;;;;;;5083147;28;19939;-75
2022/06/10 07:12:27;;;;;;;;;;;;;;;;;;5080140;28;19916;-73
2022/06/10 07:15:13;;;;;;;;;;;;;;;;;;5076656;28;19911;-74
2022/06/10 07:18:00;;;;;;;;;;;;;;;;;;5081260;28;19916;-75
2022/06/10 07:20:46;;;;;;;;;;;;;;;;;;5066107;28;19908;-75
2022/06/10 07:23:32;;;;;;;;;;;;;;;;;;5085219;28;19946;-76
2022/06/10 07:26:19;;;;;;;;;;;;;;;;;;5082494;28;19919;-76
2022/06/10 07:29:05;;;;;;;;;;;;;;;;;;5090647;28;19915;-76
2022/06/10 07:31:52;;;;;;;;;;;;;;;;;;5070809;28;19919;-76
2022/06/10 07:34:38;;;;;;;;;;;;;;;;;;5086790;28;19923;-76
2022/06/10 07:37:25;;;;;;;;;;;;;;;;;;5067604;28;19920;-75
2022/06/10 07:41:56;;;;;;;;;;;;;;;;;;5070148;28;20369;-77
2022/06/10 07:43:18;;;;;;;;;;;;;;;;;;5090886;28;19915;-77
2022/06/10 07:46:04;;;;;;;;;;;;;;;;;;5077152;28;19912;-75
2022/06/10 07:48:54;;;;;;;;;;;;;;;;;;5067000;28;20466;-74
2022/06/10 07:51:40;;;;;;;;;;;;;;;;;;5082085;28;19912;-76
2022/06/10 07:54:27;;;;;;;;;;;;;;;;;;5073063;28;19934;-76
2022/06/10 07:57:13;;;;;;;;;;;;;;;;;;5058041;28;19925;-76
2022/06/10 08:00:00;;;;;;;;;;;;;;;;;;5071341;28;19909;-76
2022/06/10 08:02:46;;;;;;;;;;;;;;;;;;5084779;28;19931;-76
2022/06/10 08:05:33;;;;;;;;;;;;;;;;;;5072036;28;19912;-76
2022/06/10 08:08:19;;;;;;;;;;;;;;;;;;5062704;28;19908;-74
2022/06/10 08:11:06;;;;;;;;;;;;;;;;;;5060216;28;19913;-74
2022/06/10 08:13:52;;;;;;;;;;;;;;;;;;5074539;28;19909;-76
2022/06/10 08:16:38;;;;;;;;;;;;;;;;;;5085725;28;20022;-76
2022/06/10 08:19:25;;;;;;;;;;;;;;;;;;5075084;28;19918;-76
2022/06/10 08:25:17;;;;;;;;;;;;;;;;;;5085430;28;21197;-75
2022/06/10 08:28:03;;;;;;;;;;;;;;;;;;5083905;28;19924;-76
2022/06/10 08:30:50;;;;;;;;;;;;;;;;;;5077961;28;19913;-75
2022/06/10 08:33:36;;;;;;;;;;;;;;;;;;5084754;28;19908;-76
2022/06/10 08:36:23;;;;;;;;;;;;;;;;;;5083386;28;19924;-76
2022/06/10 08:39:09;;;;;;;;;;;;;;;;;;5096844;28;19912;-75
2022/06/10 08:41:57;;;;;;;;;;;;;;;;;;5094962;28;19919;-76
2022/06/10 08:44:50;;;;;;;;;;;;;;;;;;5084872;28;20276;-76
2022/06/10 08:47:37;;;;;;;;;;;;;;;;;;5076767;28;19908;-76
2022/06/10 08:50:24;;;;;;;;;;;;;;;;;;5057344;28;20311;-77
2022/06/10 08:53:10;;;;;;;;;;;;;;;;;;5092727;28;19914;-76
2022/06/10 08:56:00;;;;;;;;;;;;;;;;;;5082427;28;20021;-76
2022/06/10 08:58:47;;;;;;;;;;;;;;;;;;5084557;28;19935;-76
2022/06/10 09:01:33;;;;;;;;;;;;;;;;;;5082616;28;19920;-75
2022/06/10 09:04:20;;;;;;;;;;;;;;;;;;5077547;28;20359;-75
2022/06/10 09:07:07;;;;;;;;;;;;;;;;;;5075202;28;19908;-75
2022/06/10 09:09:53;;;;;;;;;;;;;;;;;;5085719;28;19916;-77
2022/06/10 09:12:40;;;;;;;;;;;;;;;;;;5079751;28;19909;-75
2022/06/10 09:15:26;;;;;;;;;;;;;;;;;;5089354;28;19908;-75
2022/06/10 09:18:12;;;;;;;;;;;;;;;;;;5080305;28;19923;-76
2022/06/10 09:21:00;;;;;;;;;;;;;;;;;;5071218;28;19908;-76
2022/06/10 09:23:46;;;;;;;;;;;;;;;;;;5079932;28;19908;-76
2022/06/10 09:26:33;;;;;;;;;;;;;;;;;;5084166;28;19912;-77
2022/06/10 09:29:20;;;;;;;;;;;;;;;;;;5069532;28;19938;-78
2022/06/10 09:32:06;;;;;;;;;;;;;;;;;;5074652;28;19913;-78
2022/06/10 09:34:53;;;;;;;;;;;;;;;;;;5083533;28;19909;-78
2022/06/10 09:37:39;;;;;;;;;;;;;;;;;;5097349;28;19920;-78
2022/06/10 09:40:38;;;;;;;;;;;;;;;;;;5096053;28;20386;-76
2022/06/10 09:43:26;;;;;;;;;;;;;;;;;;5066026;28;20026;-78
2022/06/10 09:46:12;;;;;;;;;;;;;;;;;;5097224;28;19908;-82
2022/06/10 09:48:59;;;;;;;;;;;;;;;;;;5070388;28;19919;-77
2022/06/10 09:51:45;;;;;;;;;;;;;;;;;;5080183;28;20383;-78
2022/06/10 09:54:32;;;;;;;;;;;;;;;;;;5081878;28;19909;-77
2022/06/10 09:57:18;;;;;;;;;;;;;;;;;;5071486;28;19920;-79
2022/06/10 10:00:05;;;;;;;;;;;;;;;;;;5079102;28;19922;-77
2022/06/10 10:02:51;;;;;;;;;;;;;;;;;;5078485;28;19947;-77
2022/06/10 10:05:38;;;;;;;;;;;;;;;;;;5074525;28;20360;-77
2022/06/10 10:08:24;;;;;;;;;;;;;;;;;;5076748;28;19934;-78
2022/06/10 10:11:11;;;;;;;;;;;;;;;;;;5078390;28;20296;-78
2022/06/10 10:13:57;;;;;;;;;;;;;;;;;;5080845;28;19920;-77
2022/06/10 10:16:44;;;;;;;;;;;;;;;;;;5085728;28;19917;-78
2022/06/10 10:19:30;;;;;;;;;;;;;;;;;;5110227;28;20439;-77
2022/06/10 10:22:17;;;;;;;;;;;;;;;;;;5066029;28;19986;-79
2022/06/10 10:25:03;;;;;;;;;;;;;;;;;;5086429;28;19912;-79
2022/06/10 10:27:50;;;;;;;;;;;;;;;;;;5084285;28;19914;-79
2022/06/10 10:30:36;;;;;;;;;;;;;;;;;;5079396;28;20675;-78
2022/06/10 10:33:23;;;;;;;;;;;;;;;;;;5076469;28;19912;-79
2022/06/10 10:36:09;;;;;;;;;;;;;;;;;;5083902;28;19926;-78
2022/06/10 10:38:56;;;;;;;;;;;;;;;;;;5086778;28;19916;-79
2022/06/10 10:41:43;;;;;;;;;;;;;;;;;;5076476;28;19916;-78
2022/06/10 10:44:30;;;;;;;;;;;;;;;;;;5060579;28;19920;-79
2022/06/10 10:47:17;;;;;;;;;;;;;;;;;;5059710;28;19959;-79
2022/06/10 10:50:03;;;;;;;;;;;;;;;;;;5072926;28;19913;-79
2022/06/10 10:52:50;;;;;;;;;;;;;;;;;;5078318;28;19912;-79
2022/06/10 10:55:36;;;;;;;;;;;;;;;;;;5060842;28;19908;-79
2022/06/10 10:58:23;;;;;;;;;;;;;;;;;;5055445;28;19920;-79
2022/06/10 11:01:09;;;;;;;;;;;;;;;;;;5073218;28;19912;-79
2022/06/10 11:03:56;;;;;;;;;;;;;;;;;;5076766;28;19915;-79
2022/06/10 11:06:42;;;;;;;;;;;;;;;;;;5089414;28;19916;-79
2022/06/10 11:09:29;;;;;;;;;;;;;;;;;;5074231;28;19927;-80
2022/06/10 11:12:15;;;;;;;;;;;;;;;;;;5087749;28;20288;-81
2022/06/10 11:15:03;;;;;;;;;;;;;;;;;;5084470;28;19916;-81
2022/06/10 11:17:49;;;;;;;;;;;;;;;;;;5088469;28;19920;-81
2022/06/10 11:20:39;;;;;;;;;;;;;;;;;;5066784;28;20320;-81
2022/06/10 11:23:26;;;;;;;;;;;;;;;;;;5083015;28;19916;-82
2022/06/10 11:26:13;;;;;;;;;;;;;;;;;;5076984;28;19912;-81
2022/06/10 11:29:02;;;;;;;;;;;;;;;;;;5082005;28;19943;-81
2022/06/10 11:31:49;;;;;;;;;;;;;;;;;;5073078;28;19909;-79
2022/06/10 11:34:36;;;;;;;;;;;;;;;;;;5069750;28;19913;-78
2022/06/10 11:37:22;;;;;;;;;;;;;;;;;;5071256;28;20023;-79
2022/06/10 11:40:09;;;;;;;;;;;;;;;;;;5083305;28;20388;-80
2022/06/10 11:42:55;;;;;;;;;;;;;;;;;;5068883;28;19914;-80
2022/06/10 11:45:41;;;;;;;;;;;;;;;;;;5084489;28;20620;-80
2022/06/10 11:48:28;;;;;;;;;;;;;;;;;;5062993;28;19908;-80
2022/06/10 11:51:14;;;;;;;;;;;;;;;;;;5080801;28;19912;-79
2022/06/10 11:54:01;;;;;;;;;;;;;;;;;;5057272;28;19919;-83
2022/06/10 11:59:52;;;;;;;;;;;;;;;;;;5070862;28;20373;-83
2022/06/10 12:02:39;;;;;;;;;;;;;;;;;;5077508;28;19921;-81
2022/06/10 12:05:25;;;;;;;;;;;;;;;;;;5075385;28;19913;-81
2022/06/10 12:08:12;;;;;;;;;;;;;;;;;;5080076;28;19927;-81
2022/06/10 12:10:58;;;;;;;;;;;;;;;;;;5083918;28;19908;-80
2022/06/10 12:13:47;;;;;;;;;;;;;;;;;;5079830;28;19918;-78
2022/06/10 12:16:37;;;;;;;;;;;;;;;;;;5064630;28;19920;-77
2022/06/10 12:19:24;;;;;;;;;;;;;;;;;;5076905;28;19922;-78
2022/06/10 12:22:13;;;;;;;;;;;;;;;;;;5076140;28;19912;-79
2022/06/10 12:28:07;;;;;;;;;;;;;;;;;;5077629;28;19920;-78
2022/06/10 12:31:00;;;;;;;;;;;;;;;;;;5087703;28;19920;-78
2022/06/10 12:33:47;;;;;;;;;;;;;;;;;;5084662;28;19912;-77
2022/06/10 12:36:33;;;;;;;;;;;;;;;;;;5082483;28;19920;-79
2022/06/10 12:39:20;;;;;;;;;;;;;;;;;;5086978;28;19908;-80
2022/06/10 12:42:06;;;;;;;;;;;;;;;;;;5075288;28;19915;-77
2022/06/10 12:44:53;;;;;;;;;;;;;;;;;;5090902;28;20360;-79
2022/06/10 12:47:39;;;;;;;;;;;;;;;;;;5070432;28;19912;-78
2022/06/10 12:50:27;;;;;;;;;;;;;;;;;;5060149;28;19986;-81
2022/06/10 12:53:14;;;;;;;;;;;;;;;;;;5078149;28;19912;-78
2022/06/10 12:56:00;;;;;;;;;;;;;;;;;;5077352;28;19935;-77
2022/06/10 12:58:47;;;;;;;;;;;;;;;;;;5079728;28;20402;-79
2022/06/10 13:01:33;;;;;;;;;;;;;;;;;;5075943;28;20383;-78
2022/06/10 13:04:20;;;;;;;;;;;;;;;;;;5075433;28;19909;-79
2022/06/10 13:07:06;;;;;;;;;;;;;;;;;;5086922;28;20342;-77
2022/06/10 13:09:53;;;;;;;;;;;;;;;;;;5076385;28;19930;-79
2022/06/10 13:12:39;;;;;;;;;;;;;;;;;;5085103;28;19918;-78
2022/06/10 13:15:29;;;;;;;;;;;;;;;;;;5071422;28;19908;-78
2022/06/10 13:18:16;;;;;;;;;;;;;;;;;;5072624;28;19917;-77
2022/06/10 13:21:03;;;;;;;;;;;;;;;;;;5088707;28;19931;-78
2022/06/10 13:23:52;;;;;;;;;;;;;;;;;;5101380;28;19922;-78
2022/06/10 13:26:38;;;;;;;;;;;;;;;;;;5090388;28;19915;-77
2022/06/10 13:29:25;;;;;;;;;;;;;;;;;;5082902;28;20273;-77
2022/06/10 13:32:11;;;;;;;;;;;;;;;;;;5093276;28;19919;-78
2022/06/10 13:34:58;;;;;;;;;;;;;;;;;;5079398;28;19912;-78
2022/06/10 13:37:44;;;;;;;;;;;;;;;;;;5079120;28;19951;-77
2022/06/10 13:40:31;;;;;;;;;;;;;;;;;;5077137;28;19920;-79
2022/06/10 13:43:17;;;;;;;;;;;;;;;;;;5078069;28;19923;-78
2022/06/10 13:46:04;;;;;;;;;;;;;;;;;;5078584;28;20394;-77
2022/06/10 13:48:51;;;;;;;;;;;;;;;;;;5063808;28;19935;-79
2022/06/10 13:51:42;;;;;;;;;;;;;;;;;;5077237;28;19916;-78
2022/06/10 13:54:29;;;;;;;;;;;;;;;;;;5070863;28;20650;-78
2022/06/10 13:57:16;;;;;;;;;;;;;;;;;;5071747;28;19917;-79
2022/06/10 14:00:02;;;;;;;;;;;;;;;;;;5075929;28;20364;-78
2022/06/10 14:02:49;;;;;;;;;;;;;;;;;;5081536;28;19912;-78
2022/06/10 14:05:35;;;;;;;;;;;;;;;;;;5070640;28;19908;-78
2022/06/10 14:08:22;;;;;;;;;;;;;;;;;;5075275;28;19918;-78
2022/06/10 14:11:08;;;;;;;;;;;;;;;;;;5070419;28;19913;-78
2022/06/10 14:13:55;;;;;;;;;;;;;;;;;;5077862;28;19987;-78
2022/06/10 14:16:42;;;;;;;;;;;;;;;;;;5077516;28;19916;-78
2022/06/10 14:19:28;;;;;;;;;;;;;;;;;;5086411;28;19912;-78
2022/06/10 14:22:15;;;;;;;;;;;;;;;;;;5073032;28;20455;-78
2022/06/10 14:25:01;;;;;;;;;;;;;;;;;;5089347;28;19908;-79
2022/06/10 14:27:48;;;;;;;;;;;;;;;;;;5088922;28;20297;-79
2022/06/10 14:30:34;;;;;;;;;;;;;;;;;;5077442;28;19916;-78
2022/06/10 14:33:21;;;;;;;;;;;;;;;;;;5082363;28;19918;-78
2022/06/10 14:36:07;;;;;;;;;;;;;;;;;;5072269;28;20369;-78
2022/06/10 14:38:54;;;;;;;;;;;;;;;;;;5062935;28;20407;-77
2022/06/10 14:41:40;;;;;;;;;;;;;;;;;;5066334;28;20406;-78
2022/06/10 14:44:32;;;;;;;;;;;;;;;;;;5087629;28;19916;-78
2022/06/10 14:47:26;;;;;;;;;;;;;;;;;;5078884;28;19924;-78
2022/06/10 14:50:13;;;;;;;;;;;;;;;;;;5082490;28;19914;-79
2022/06/10 14:52:59;;;;;;;;;;;;;;;;;;5082728;28;19915;-79
2022/06/10 14:55:46;;;;;;;;;;;;;;;;;;5078895;28;19916;-78
2022/06/10 14:58:32;;;;;;;;;;;;;;;;;;5080554;28;19923;-78
2022/06/10 15:01:19;;;;;;;;;;;;;;;;;;5068582;28;20291;-78
2022/06/10 15:04:06;;;;;;;;;;;;;;;;;;5085942;28;19916;-83
2022/06/10 15:06:53;;;;;;;;;;;;;;;;;;5068643;28;19919;-82
2022/06/10 15:09:39;;;;;;;;;;;;;;;;;;5078558;28;19918;-81
2022/06/10 15:12:25;;;;;;;;;;;;;;;;;;5071603;28;19912;-82
2022/06/10 15:15:12;;;;;;;;;;;;;;;;;;5085599;28;19922;-82
2022/06/10 15:17:59;;;;;;;;;;;;;;;;;;5071346;28;19929;-80
2022/06/10 15:20:45;;;;;;;;;;;;;;;;;;5066826;28;19926;-82
2022/06/10 15:23:32;;;;;;;;;;;;;;;;;;5080680;28;19920;-81
2022/06/10 15:26:19;;;;;;;;;;;;;;;;;;5063645;28;20291;-78
2022/06/10 15:29:06;;;;;;;;;;;;;;;;;;5079108;28;19920;-78
2022/06/10 15:31:53;;;;;;;;;;;;;;;;;;5081121;28;20403;-80
2022/06/10 15:40:42;;;;;;;;;;;;;;;;;;5066772;28;19919;-80
2022/06/10 15:40:52;;;;;;;;;;;;;;;;;;5081073;28;19916;-79
2022/06/10 15:43:38;;;;;;;;;;;;;;;;;;5080630;28;19919;-80
2022/06/10 15:46:25;;;;;;;;;;;;;;;;;;5073511;28;19920;-78
2022/06/10 15:49:11;;;;;;;;;;;;;;;;;;5083227;28;19928;-78
2022/06/10 15:51:58;;;;;;;;;;;;;;;;;;5081594;28;19912;-79
2022/06/10 15:57:49;;;;;;;;;;;;;;;;;;5078702;28;19950;-79
2022/06/10 16:00:36;;;;;;;;;;;;;;;;;;5079893;28;19957;-78
2022/06/10 16:03:22;;;;;;;;;;;;;;;;;;5089345;28;20287;-78
2022/06/10 16:06:10;;;;;;;;;;;;;;;;;;5085155;28;19920;-78
2022/06/10 16:08:56;;;;;;;;;;;;;;;;;;5087556;28;19932;-78
2022/06/10 16:11:43;;;;;;;;;;;;;;;;;;5080159;28;19912;-78
2022/06/10 16:14:29;;;;;;;;;;;;;;;;;;5076752;28;19922;-78
2022/06/10 16:17:15;;;;;;;;;;;;;;;;;;5078009;28;19924;-78
2022/06/10 16:20:03;;;;;;;;;;;;;;;;;;5079748;28;19914;-79
2022/06/10 16:22:50;;;;;;;;;;;;;;;;;;5081668;28;19916;-79
2022/06/10 16:25:36;;;;;;;;;;;;;;;;;;5078156;28;20380;-79
2022/06/10 16:28:23;;;;;;;;;;;;;;;;;;5082088;28;19919;-78
2022/06/10 16:31:11;;;;;;;;;;;;;;;;;;5081898;28;19995;-77
2022/06/10 16:33:58;;;;;;;;;;;;;;;;;;5082605;28;19908;-78
2022/06/10 16:36:44;;;;;;;;;;;;;;;;;;5078558;28;19924;-79
2022/06/10 16:39:30;;;;;;;;;;;;;;;;;;5092398;28;19919;-79
2022/06/10 16:42:18;;;;;;;;;;;;;;;;;;5095433;28;19935;-76
2022/06/10 16:45:04;;;;;;;;;;;;;;;;;;5076378;28;19913;-76
2022/06/10 16:47:51;;;;;;;;;;;;;;;;;;5084631;28;20543;-78
2022/06/10 16:50:37;;;;;;;;;;;;;;;;;;5072727;28;19908;-78
2022/06/10 16:53:29;;;;;;;;;;;;;;;;;;5088219;28;19908;-77
2022/06/10 16:56:16;;;;;;;;;;;;;;;;;;5097873;28;19912;-76
2022/06/10 16:59:09;;;;;;;;;;;;;;;;;;5071941;28;19916;-77
2022/06/10 17:01:55;;;;;;;;;;;;;;;;;;5080761;28;19912;-77
2022/06/10 17:04:42;;;;;;;;;;;;;;;;;;5090413;28;19920;-77
2022/06/10 17:07:28;;;;;;;;;;;;;;;;;;5078878;28;19915;-77
2022/06/10 17:10:15;;;;;;;;;;;;;;;;;;5082546;28;19923;-77
2022/06/10 17:13:04;;;;;;;;;;;;;;;;;;5073550;28;20276;-77
2022/06/10 17:15:50;;;;;;;;;;;;;;;;;;5078694;28;19908;-77
2022/06/10 17:18:37;;;;;;;;;;;;;;;;;;5078489;28;19917;-78
2022/06/10 17:21:23;;;;;;;;;;;;;;;;;;5087667;28;19915;-76
2022/06/10 17:24:13;;;;;;;;;;;;;;;;;;5066048;28;19950;-76
2022/06/10 17:26:59;;;;;;;;;;;;;;;;;;5067080;28;19931;-76
2022/06/10 17:29:46;;;;;;;;;;;;;;;;;;5083155;28;19913;-76
2022/06/10 17:32:32;;;;;;;;;;;;;;;;;;5081087;28;20295;-76
2022/06/10 17:35:19;;;;;;;;;;;;;;;;;;5076864;28;19923;-76
2022/06/10 17:38:05;;;;;;;;;;;;;;;;;;5079224;28;20481;-75
2022/06/10 17:40:52;;;;;;;;;;;;;;;;;;5068955;28;19908;-82
2022/06/10 17:43:38;;;;;;;;;;;;;;;;;;5074422;28;19913;-79
2022/06/10 17:46:25;;;;;;;;;;;;;;;;;;5079018;28;19913;-78
2022/06/10 17:49:11;;;;;;;;;;;;;;;;;;5082584;28;20395;-78
2022/06/10 17:52:03;;;;;;;;;;;;;;;;;;5077557;28;19919;-78
2022/06/10 17:54:49;;;;;;;;;;;;;;;;;;5081390;28;19912;-77
2022/06/10 17:57:38;;;;;;;;;;;;;;;;;;5080541;28;19930;-77
2022/06/10 18:00:25;;;;;;;;;;;;;;;;;;5077690;28;19912;-77
2022/06/10 18:03:16;;;;;;;;;;;;;;;;;;5079190;28;20294;-78
2022/06/10 18:06:03;;;;;;;;;;;;;;;;;;5075492;28;19912;-77
2022/06/10 18:08:53;;;;;;;;;;;;;;;;;;5075933;28;20290;-78
2022/06/10 18:11:43;;;;;;;;;;;;;;;;;;5077054;28;19918;-77
2022/06/10 18:17:35;;;;;;;;;;;;;;;;;;5081250;28;19927;-78
2022/06/10 18:20:21;;;;;;;;;;;;;;;;;;5074398;28;20457;-78
2022/06/10 18:23:08;;;;;;;;;;;;;;;;;;5079202;28;19912;-78
2022/06/10 18:25:57;;;;;;;;;;;;;;;;;;5078093;28;19919;-77
2022/06/10 18:28:44;;;;;;;;;;;;;;;;;;5076585;28;20284;-77
2022/06/10 18:31:30;;;;;;;;;;;;;;;;;;5080181;28;19908;-78
2022/06/10 18:34:17;;;;;;;;;;;;;;;;;;5078839;28;19908;-77
2022/06/10 18:37:03;;;;;;;;;;;;;;;;;;5080745;28;20360;-77
2022/06/10 18:39:50;;;;;;;;;;;;;;;;;;5081022;28;20382;-78
2022/06/10 18:42:36;;;;;;;;;;;;;;;;;;5080796;28;19954;-78
2022/06/10 18:45:23;;;;;;;;;;;;;;;;;;5086721;28;19912;-78
2022/06/10 18:48:10;;;;;;;;;;;;;;;;;;5086336;28;19927;-78
2022/06/10 18:50:56;;;;;;;;;;;;;;;;;;5081290;28;20014;-78
2022/06/10 18:53:43;;;;;;;;;;;;;;;;;;5077671;28;19908;-77
2022/06/10 18:56:30;;;;;;;;;;;;;;;;;;5077598;28;19916;-77
2022/06/10 18:59:17;;;;;;;;;;;;;;;;;;5072397;28;19935;-78
2022/06/10 19:02:04;;;;;;;;;;;;;;;;;;5102672;28;19908;-78
2022/06/10 19:04:50;;;;;;;;;;;;;;;;;;5083336;28;19915;-78
2022/06/10 19:07:37;;;;;;;;;;;;;;;;;;5073830;28;19912;-77
2022/06/10 19:10:23;;;;;;;;;;;;;;;;;;5085070;28;19974;-78
2022/06/10 19:13:12;;;;;;;;;;;;;;;;;;5068044;28;20311;-78
2022/06/10 19:15:58;;;;;;;;;;;;;;;;;;5085671;28;19915;-77
2022/06/10 19:18:44;;;;;;;;;;;;;;;;;;5086397;28;19920;-78
2022/06/10 19:21:31;;;;;;;;;;;;;;;;;;5084642;28;19930;-78